Time;durP1;ratioP1;P1;durP2;ratioP2;P2;SDS_P1;SDS_P2;PMS_P1;PMS_P2;Temp;Humidity;BMP_temperature;BMP_pressure;BME280_temperature;BME280_humidity;BME280_pressure;Samples;Min_cycle;Max_cycle;Signal;HPM_P1;HPM_P2
2024/03/06 00:01:32;;;;;;;14.23;12.83;;;8.40;67.90;;;;;;4970209;28;20224;-57
2024/03/06 00:03:58;;;;;;;14.03;12.57;;;8.40;67.70;;;;;;4971269;28;20240;-57
2024/03/06 00:06:25;;;;;;;14.07;12.57;;;8.50;67.40;;;;;;4976458;28;20209;-59
2024/03/06 00:08:52;;;;;;;13.80;12.33;;;8.40;68.00;;;;;;4977276;28;20208;-57
2024/03/06 00:11:19;;;;;;;13.57;12.17;;;8.40;67.50;;;;;;4977734;28;20290;-57
2024/03/06 00:13:47;;;;;;;14.23;12.73;;;8.40;68.00;;;;;;4977806;28;20240;-55
2024/03/06 00:16:14;;;;;;;15.00;12.67;;;8.40;67.70;;;;;;4972945;28;20212;-58
2024/03/06 00:18:40;;;;;;;14.20;12.80;;;8.30;68.50;;;;;;4971912;28;20220;-56
2024/03/06 00:21:07;;;;;;;14.13;12.07;;;8.30;68.30;;;;;;4975671;28;20220;-57
2024/03/06 00:23:35;;;;;;;13.70;12.23;;;8.30;68.40;;;;;;4977018;28;20215;-59
2024/03/06 00:26:02;;;;;;;14.67;13.17;;;8.20;69.10;;;;;;4977579;28;20274;-58
2024/03/06 00:28:28;;;;;;;14.13;12.63;;;8.30;68.80;;;;;;4977963;28;20244;-59
2024/03/06 00:30:55;;;;;;;14.40;11.93;;;8.20;69.10;;;;;;4982347;28;20211;-59
2024/03/06 00:33:21;;;;;;;14.10;11.97;;;8.20;69.20;;;;;;4981455;28;20581;-60
2024/03/06 00:35:48;;;;;;;12.73;11.43;;;8.30;69.80;;;;;;4983096;28;20208;-57
2024/03/06 00:38:14;;;;;;;13.27;11.87;;;8.30;68.90;;;;;;4982262;28;20256;-59
2024/03/06 00:40:41;;;;;;;13.13;11.77;;;8.30;69.40;;;;;;4978874;28;20212;-59
2024/03/06 00:43:07;;;;;;;14.03;12.57;;;8.30;68.90;;;;;;4982924;28;20236;-58
2024/03/06 00:45:34;;;;;;;13.07;11.70;;;8.30;68.90;;;;;;4983038;28;20219;-59
2024/03/06 00:48:00;;;;;;;12.80;11.50;;;8.40;68.70;;;;;;4981364;28;20226;-58
2024/03/06 00:50:27;;;;;;;13.10;11.73;;;8.30;68.80;;;;;;4981247;28;20219;-59
2024/03/06 00:52:53;;;;;;;12.50;11.23;;;8.30;68.90;;;;;;4982303;28;20263;-59
2024/03/06 00:55:20;;;;;;;12.67;11.37;;;8.10;69.10;;;;;;4981997;28;20211;-57
2024/03/06 00:57:46;;;;;;;12.67;11.23;;;8.20;69.40;;;;;;4977224;28;20235;-59
2024/03/06 01:00:13;;;;;;;12.70;11.23;;;8.30;69.00;;;;;;4982350;28;20208;-59
2024/03/06 01:02:40;;;;;;;12.87;11.57;;;8.30;69.70;;;;;;4981415;28;20263;-57
2024/03/06 01:05:06;;;;;;;13.10;11.17;;;8.30;69.00;;;;;;4981462;28;20267;-59
2024/03/06 01:07:33;;;;;;;12.90;11.50;;;8.20;69.70;;;;;;4980922;28;20228;-58
2024/03/06 01:10:00;;;;;;;13.37;11.97;;;8.30;69.10;;;;;;4981272;28;20408;-58
2024/03/06 01:12:27;;;;;;;12.53;11.23;;;8.20;68.90;;;;;;4973740;28;20261;-58
2024/03/06 01:14:53;;;;;;;12.37;11.13;;;8.20;69.30;;;;;;4975535;28;20243;-60
2024/03/06 01:17:20;;;;;;;12.80;11.27;;;8.20;69.30;;;;;;4980231;28;20228;-58
2024/03/06 01:19:47;;;;;;;12.90;11.47;;;8.20;69.50;;;;;;4976196;28;20205;-59
2024/03/06 01:22:14;;;;;;;12.83;11.53;;;8.30;69.00;;;;;;4977724;28;20579;-59
2024/03/06 01:24:40;;;;;;;14.13;12.73;;;8.40;69.00;;;;;;4972879;28;20216;-57
2024/03/06 01:27:07;;;;;;;14.03;12.53;;;8.30;68.60;;;;;;4977703;28;20606;-60
2024/03/06 01:29:33;;;;;;;13.87;12.37;;;8.20;69.20;;;;;;4981062;28;20255;-59
2024/03/06 01:32:00;;;;;;;12.70;11.40;;;8.20;69.80;;;;;;4980551;28;20231;-58
2024/03/06 01:34:27;;;;;;;12.13;10.93;;;8.20;69.90;;;;;;4980387;28;20686;-57
2024/03/06 01:36:53;;;;;;;13.70;12.30;;;8.20;70.00;;;;;;4980417;28;20213;-57
2024/03/06 01:39:20;;;;;;;14.13;12.73;;;8.30;69.80;;;;;;4979808;28;20238;-58
2024/03/06 01:41:47;;;;;;;13.30;11.90;;;8.20;69.70;;;;;;4972954;28;20692;-55
2024/03/06 01:44:13;;;;;;;15.33;13.40;;;8.20;69.20;;;;;;4978345;28;20212;-59
2024/03/06 01:46:40;;;;;;;13.87;11.73;;;8.10;69.80;;;;;;4975811;28;20248;-59
2024/03/06 01:49:06;;;;;;;13.37;11.97;;;8.00;70.80;;;;;;4979607;28;20259;-59
2024/03/06 01:51:33;;;;;;;14.43;12.80;;;8.10;69.90;;;;;;4980484;28;20228;-59
2024/03/06 01:53:59;;;;;;;15.60;13.93;;;8.10;69.50;;;;;;4980140;28;20212;-59
2024/03/06 01:56:26;;;;;;;14.83;12.83;;;7.90;70.00;;;;;;4979035;28;20208;-57
2024/03/06 01:58:53;;;;;;;14.67;13.03;;;8.10;70.90;;;;;;4977723;28;20259;-60
2024/03/06 02:01:20;;;;;;;15.10;13.60;;;8.10;70.50;;;;;;4974196;28;20232;-59
2024/03/06 02:03:46;;;;;;;16.53;13.97;;;8.20;70.40;;;;;;4973871;28;20868;-58
2024/03/06 02:06:14;;;;;;;15.23;13.33;;;8.20;70.30;;;;;;4978591;28;20220;-60
2024/03/06 02:08:41;;;;;;;16.87;14.57;;;8.00;70.00;;;;;;4978430;28;20762;-59
2024/03/06 02:11:07;;;;;;;17.17;13.87;;;8.10;70.90;;;;;;4977954;28;20242;-60
2024/03/06 02:13:34;;;;;;;18.60;16.23;;;8.00;71.30;;;;;;4978060;28;20216;-58
2024/03/06 02:16:00;;;;;;;17.70;14.90;;;7.90;71.30;;;;;;4978223;28;20212;-57
2024/03/06 02:18:27;;;;;;;18.20;14.87;;;7.90;71.40;;;;;;4972903;28;20220;-56
2024/03/06 02:20:53;;;;;;;16.63;14.33;;;7.90;71.00;;;;;;4969067;28;20745;-58
2024/03/06 02:23:21;;;;;;;17.17;14.97;;;7.90;71.20;;;;;;4975501;28;20284;-59
2024/03/06 02:25:48;;;;;;;19.27;15.33;;;8.00;72.50;;;;;;4978153;28;20208;-58
2024/03/06 02:28:15;;;;;;;17.27;15.27;;;7.90;71.60;;;;;;4977484;28;20324;-60
2024/03/06 02:30:41;;;;;;;18.57;15.80;;;7.90;71.20;;;;;;4978480;28;20211;-58
2024/03/06 02:33:08;;;;;;;18.23;14.87;;;8.00;71.80;;;;;;4978222;28;20595;-58
2024/03/06 02:35:34;;;;;;;18.43;15.67;;;8.00;71.20;;;;;;4974789;28;20571;-59
2024/03/06 02:38:01;;;;;;;19.30;15.70;;;7.90;71.90;;;;;;4975154;28;20262;-58
2024/03/06 02:40:28;;;;;;;16.33;14.60;;;7.80;72.40;;;;;;4977103;28;20247;-59
2024/03/06 02:42:55;;;;;;;16.93;15.03;;;7.90;72.30;;;;;;4978112;28;20240;-60
2024/03/06 02:45:21;;;;;;;17.87;15.13;;;8.00;71.70;;;;;;4978128;28;20208;-59
2024/03/06 02:47:48;;;;;;;20.77;15.63;;;7.90;71.50;;;;;;4978169;28;20784;-59
2024/03/06 02:50:15;;;;;;;17.73;15.23;;;8.00;71.40;;;;;;4979045;28;20213;-56
2024/03/06 02:52:41;;;;;;;18.20;14.87;;;8.00;71.00;;;;;;4977470;28;20236;-59
2024/03/06 02:55:08;;;;;;;18.93;15.27;;;7.90;71.60;;;;;;4964802;28;20291;-58
2024/03/06 02:57:34;;;;;;;18.10;14.80;;;7.90;72.20;;;;;;4976543;28;20243;-58
2024/03/06 03:00:01;;;;;;;17.10;14.23;;;7.90;72.40;;;;;;4978329;28;20216;-58
2024/03/06 03:02:28;;;;;;;18.07;14.13;;;7.90;72.30;;;;;;4977335;28;20236;-59
2024/03/06 03:04:54;;;;;;;17.23;13.67;;;7.90;72.30;;;;;;4977642;28;20279;-57
2024/03/06 03:07:21;;;;;;;17.77;14.50;;;7.90;73.00;;;;;;4977999;28;20698;-58
2024/03/06 03:09:48;;;;;;;18.17;14.33;;;7.90;71.90;;;;;;4977966;28;20240;-59
2024/03/06 03:12:14;;;;;;;17.27;14.07;;;7.90;72.00;;;;;;4967955;28;20263;-56
2024/03/06 03:14:41;;;;;;;16.17;13.73;;;7.90;71.70;;;;;;4973226;28;20238;-59
2024/03/06 03:17:07;;;;;;;18.27;13.50;;;7.90;72.00;;;;;;4971501;28;20213;-59
2024/03/06 03:19:34;;;;;;;15.50;13.43;;;7.90;72.00;;;;;;4978009;28;20212;-58
2024/03/06 03:22:00;;;;;;;16.83;13.83;;;7.90;72.10;;;;;;4971315;28;20286;-57
2024/03/06 03:24:27;;;;;;;15.10;12.90;;;7.80;71.70;;;;;;4977212;28;20224;-60
2024/03/06 03:26:53;;;;;;;17.17;13.23;;;7.90;72.00;;;;;;4977335;28;20706;-59
2024/03/06 03:29:20;;;;;;;18.23;13.40;;;7.90;71.50;;;;;;4977006;28;20292;-59
2024/03/06 03:31:47;;;;;;;14.70;12.50;;;8.00;71.70;;;;;;4976487;28;20319;-57
2024/03/06 03:34:13;;;;;;;11.40;9.60;;;8.10;71.60;;;;;;4976990;28;20244;-58
2024/03/06 03:36:40;;;;;;;6.20;5.60;;;8.00;69.90;;;;;;4977117;28;20243;-59
2024/03/06 03:39:08;;;;;;;5.60;5.03;;;7.90;67.90;;;;;;4965109;28;20235;-59
2024/03/06 03:41:34;;;;;;;5.27;4.77;;;7.70;68.40;;;;;;4967479;28;20263;-57
2024/03/06 03:44:00;;;;;;;4.63;4.23;;;7.80;68.10;;;;;;4977620;28;20232;-59
2024/03/06 03:46:27;;;;;;;4.43;4.00;;;7.60;67.50;;;;;;4978218;28;20645;-59
2024/03/06 03:48:53;;;;;;;3.87;3.43;;;7.60;68.20;;;;;;4977159;28;20287;-59
2024/03/06 03:51:20;;;;;;;4.30;3.90;;;7.60;69.00;;;;;;4978010;28;20591;-60
2024/03/06 03:53:50;;;;;;;4.57;4.17;;;7.70;68.20;;;;;;4979371;28;20212;-58
2024/03/06 03:56:17;;;;;;;4.50;4.10;;;7.60;68.10;;;;;;4974317;28;20212;-59
2024/03/06 03:58:43;;;;;;;4.90;4.20;;;7.70;68.20;;;;;;4977484;28;20247;-59
2024/03/06 04:01:10;;;;;;;4.60;4.20;;;7.70;68.10;;;;;;4979439;28;20215;-58
2024/03/06 04:03:37;;;;;;;4.30;3.90;;;7.60;68.20;;;;;;4980944;28;20212;-58
2024/03/06 04:06:03;;;;;;;3.60;3.30;;;7.70;69.10;;;;;;4982350;28;20219;-59
2024/03/06 04:08:30;;;;;;;3.90;3.60;;;7.70;67.70;;;;;;4983661;28;20604;-60
2024/03/06 04:10:56;;;;;;;4.30;3.90;;;7.60;68.30;;;;;;4983747;28;20215;-60
2024/03/06 04:13:23;;;;;;;4.17;3.87;;;7.60;68.20;;;;;;4978857;28;21181;-58
2024/03/06 04:15:49;;;;;;;4.67;4.27;;;7.70;68.10;;;;;;4979474;28;20211;-57
2024/03/06 04:18:16;;;;;;;5.20;4.77;;;7.60;68.10;;;;;;4981365;28;20240;-60
2024/03/06 04:20:42;;;;;;;4.20;3.90;;;7.60;68.90;;;;;;4978686;28;20227;-61
2024/03/06 04:23:09;;;;;;;4.50;4.10;;;7.70;68.40;;;;;;4968842;28;20237;-59
2024/03/06 04:25:36;;;;;;;4.40;4.00;;;7.80;68.20;;;;;;4979846;28;20212;-59
2024/03/06 04:28:03;;;;;;;5.63;4.50;;;7.70;68.30;;;;;;4980179;28;20223;-59
2024/03/06 04:30:29;;;;;;;5.00;4.57;;;7.70;69.20;;;;;;4978115;28;20295;-58
2024/03/06 04:32:56;;;;;;;5.37;4.87;;;7.80;68.90;;;;;;4978727;28;20274;-58
2024/03/06 04:35:22;;;;;;;8.60;6.90;;;7.80;69.30;;;;;;4978384;28;20254;-58
2024/03/06 04:37:49;;;;;;;7.50;6.17;;;7.70;69.40;;;;;;4979691;28;20631;-57
2024/03/06 04:40:17;;;;;;;12.17;9.27;;;7.70;70.20;;;;;;4973802;28;20216;-58
2024/03/06 04:42:44;;;;;;;11.90;9.80;;;7.70;70.40;;;;;;4973145;28;20314;-59
2024/03/06 04:45:11;;;;;;;13.07;10.93;;;7.90;70.50;;;;;;4978822;28;20247;-59
2024/03/06 04:47:37;;;;;;;14.03;11.30;;;7.90;70.10;;;;;;4979152;28;20212;-57
2024/03/06 04:50:04;;;;;;;15.33;11.90;;;7.90;70.40;;;;;;4979171;28;20690;-58
2024/03/06 04:52:30;;;;;;;16.60;12.77;;;8.00;70.60;;;;;;4978928;28;20242;-58
2024/03/06 04:54:57;;;;;;;10.27;8.13;;;8.00;71.50;;;;;;4979818;28;20211;-58
2024/03/06 04:57:23;;;;;;;6.23;5.50;;;8.00;69.20;;;;;;4974808;28;20208;-59
2024/03/06 04:59:50;;;;;;;5.97;4.97;;;7.80;68.20;;;;;;4975094;28;20250;-58
2024/03/06 05:02:16;;;;;;;4.80;4.37;;;7.70;68.20;;;;;;4980867;28;20232;-58
2024/03/06 05:04:43;;;;;;;4.73;4.33;;;7.60;67.50;;;;;;4981132;28;20223;-57
2024/03/06 05:07:10;;;;;;;4.67;4.27;;;7.60;68.30;;;;;;4982411;28;20252;-60
2024/03/06 05:09:36;;;;;;;4.43;4.03;;;7.50;68.60;;;;;;4981955;28;20247;-59
2024/03/06 05:12:03;;;;;;;4.83;4.43;;;7.40;68.90;;;;;;4981080;28;20228;-58
2024/03/06 05:14:29;;;;;;;4.13;3.83;;;7.60;68.50;;;;;;4968832;28;20213;-59
2024/03/06 05:16:55;;;;;;;4.33;3.93;;;7.60;68.00;;;;;;4976192;28;20219;-59
2024/03/06 05:19:22;;;;;;;5.97;5.47;;;7.20;67.90;;;;;;4979541;28;20753;-58
2024/03/06 05:21:48;;;;;;;4.13;3.83;;;7.10;67.70;;;;;;4977763;28;20236;-60
2024/03/06 05:24:15;;;;;;;4.10;3.57;;;7.20;67.30;;;;;;4976478;28;20209;-57
2024/03/06 05:26:41;;;;;;;4.13;3.73;;;7.10;67.60;;;;;;4974724;28;20248;-59
2024/03/06 05:29:08;;;;;;;4.43;3.87;;;7.10;67.50;;;;;;4979740;28;20258;-58
2024/03/06 05:31:34;;;;;;;4.27;3.87;;;7.20;67.70;;;;;;4980602;28;20295;-59
2024/03/06 05:34:01;;;;;;;4.27;3.97;;;7.20;68.10;;;;;;4982604;28;20216;-58
2024/03/06 05:36:27;;;;;;;4.00;3.70;;;7.20;67.00;;;;;;4981914;28;20667;-58
2024/03/06 05:38:54;;;;;;;3.97;3.57;;;7.20;66.40;;;;;;4980878;28;20216;-58
2024/03/06 05:41:20;;;;;;;4.47;3.43;;;7.10;66.80;;;;;;4974423;28;20251;-59
2024/03/06 05:43:47;;;;;;;4.20;3.80;;;7.10;66.60;;;;;;4980791;28;20212;-57
2024/03/06 05:46:13;;;;;;;4.93;3.57;;;7.10;66.10;;;;;;4980850;28;20219;-60
2024/03/06 05:48:40;;;;;;;4.10;3.80;;;7.10;66.80;;;;;;4979392;28;20231;-58
2024/03/06 05:51:07;;;;;;;3.50;3.30;;;7.00;66.50;;;;;;4980276;28;20211;-59
2024/03/06 05:53:33;;;;;;;3.93;3.53;;;7.10;66.30;;;;;;4973422;28;20223;-55
2024/03/06 05:56:00;;;;;;;4.43;4.13;;;7.00;66.60;;;;;;4981294;28;20254;-59
2024/03/06 05:58:26;;;;;;;5.03;4.10;;;7.10;66.30;;;;;;4977337;28;20226;-59
2024/03/06 06:00:53;;;;;;;5.40;4.13;;;7.00;66.80;;;;;;4978467;28;20235;-59
2024/03/06 06:03:20;;;;;;;4.20;3.80;;;7.00;67.30;;;;;;4980684;28;20235;-59
2024/03/06 06:05:46;;;;;;;4.27;3.87;;;7.00;66.80;;;;;;4980359;28;20219;-58
2024/03/06 06:08:13;;;;;;;3.93;3.63;;;7.10;66.20;;;;;;4980938;28;20215;-59
2024/03/06 06:10:39;;;;;;;3.67;3.30;;;7.10;66.00;;;;;;4980663;28;20239;-58
2024/03/06 06:13:06;;;;;;;3.77;3.50;;;7.10;65.50;;;;;;4980677;28;20227;-59
2024/03/06 06:15:32;;;;;;;4.27;3.93;;;7.10;66.60;;;;;;4966268;28;20211;-59
2024/03/06 06:17:59;;;;;;;3.93;3.63;;;7.00;65.40;;;;;;4974108;28;20212;-59
2024/03/06 06:20:26;;;;;;;4.33;3.93;;;7.00;66.70;;;;;;4979828;28;20230;-59
2024/03/06 06:22:52;;;;;;;3.40;3.20;;;7.00;66.60;;;;;;4975451;28;20244;-58
2024/03/06 06:25:19;;;;;;;3.80;3.50;;;7.10;66.60;;;;;;4978841;28;20215;-58
2024/03/06 06:27:46;;;;;;;4.23;3.93;;;7.10;66.80;;;;;;4974358;28;20216;-59
2024/03/06 06:30:12;;;;;;;4.47;4.00;;;7.10;67.20;;;;;;4980636;28;20305;-57
2024/03/06 06:32:40;;;;;;;4.50;3.70;;;7.00;67.10;;;;;;4979903;28;20240;-59
2024/03/06 06:35:06;;;;;;;4.90;4.50;;;6.90;67.60;;;;;;4979795;28;20219;-59
2024/03/06 06:37:34;;;;;;;4.43;4.03;;;7.00;67.30;;;;;;4972344;28;20215;-57
2024/03/06 06:40:05;;;;;;;4.67;4.17;;;7.00;67.00;;;;;;4978661;28;20215;-58
2024/03/06 06:42:32;;;;;;;4.23;3.93;;;6.90;67.40;;;;;;4966778;28;20290;-59
2024/03/06 06:44:59;;;;;;;4.57;4.17;;;7.10;66.90;;;;;;4975281;28;20277;-58
2024/03/06 06:47:25;;;;;;;4.50;4.10;;;7.00;67.50;;;;;;4982133;28;20215;-58
2024/03/06 06:49:52;;;;;;;4.57;4.03;;;7.10;67.50;;;;;;4981797;28;20234;-58
2024/03/06 06:52:19;;;;;;;4.47;4.07;;;7.10;67.80;;;;;;4980583;28;20228;-58
2024/03/06 06:54:45;;;;;;;4.50;4.13;;;7.20;67.50;;;;;;4981843;28;20674;-58
2024/03/06 06:57:12;;;;;;;4.93;4.53;;;7.10;68.20;;;;;;4979237;28;20247;-57
2024/03/06 06:59:38;;;;;;;6.70;6.03;;;7.20;67.30;;;;;;4973804;28;20230;-57
2024/03/06 07:02:05;;;;;;;8.50;6.70;;;7.20;67.90;;;;;;4975182;28;20323;-59
2024/03/06 07:04:32;;;;;;;7.67;6.63;;;7.20;68.10;;;;;;4972149;28;20243;-60
2024/03/06 07:06:58;;;;;;;6.67;5.50;;;7.20;67.80;;;;;;4979630;28;20245;-58
2024/03/06 07:09:28;;;;;;;5.23;4.73;;;7.30;68.00;;;;;;4979837;28;20263;-59
2024/03/06 07:11:55;;;;;;;5.67;4.80;;;7.30;68.30;;;;;;4979812;28;20290;-59
2024/03/06 07:14:22;;;;;;;5.63;4.33;;;7.30;68.30;;;;;;4979837;28;20247;-60
2024/03/06 07:16:49;;;;;;;4.33;4.03;;;7.30;68.40;;;;;;4973244;28;20284;-58
2024/03/06 07:19:16;;;;;;;4.90;4.50;;;7.10;68.60;;;;;;4977136;28;20206;-59
2024/03/06 07:21:43;;;;;;;4.23;3.83;;;7.20;68.90;;;;;;4977703;28;20244;-58
2024/03/06 07:24:09;;;;;;;4.70;4.20;;;7.00;68.40;;;;;;4958958;28;20234;-60
2024/03/06 07:26:36;;;;;;;5.00;4.60;;;7.00;68.70;;;;;;4970151;28;20658;-59
2024/03/06 07:29:02;;;;;;;5.03;3.90;;;6.80;69.40;;;;;;4967530;28;20223;-59
2024/03/06 07:31:28;;;;;;;5.40;4.90;;;7.00;68.50;;;;;;4968093;28;20223;-59
2024/03/06 07:33:54;;;;;;;5.00;4.47;;;7.10;68.20;;;;;;4968379;28;20255;-59
2024/03/06 07:36:21;;;;;;;4.57;4.17;;;7.00;67.30;;;;;;4970566;28;20286;-60
2024/03/06 07:38:48;;;;;;;4.23;3.83;;;6.80;67.00;;;;;;4971392;28;20208;-60
2024/03/06 07:41:14;;;;;;;3.90;3.43;;;6.90;67.50;;;;;;4967522;28;20259;-60
2024/03/06 07:43:41;;;;;;;3.90;3.60;;;7.00;67.40;;;;;;4967484;28;20220;-60
2024/03/06 07:46:10;;;;;;;3.67;3.37;;;7.10;65.80;;;;;;4964856;28;20207;-59
2024/03/06 07:48:36;;;;;;;3.73;3.50;;;7.00;67.10;;;;;;4975938;28;20207;-60
2024/03/06 07:51:03;;;;;;;3.27;3.03;;;7.00;66.80;;;;;;4970686;28;20235;-59
2024/03/06 07:53:29;;;;;;;5.37;3.90;;;6.90;67.30;;;;;;4967993;28;20259;-59
2024/03/06 07:55:56;;;;;;;4.37;4.00;;;6.90;68.00;;;;;;4971387;28;20267;-59
2024/03/06 07:58:23;;;;;;;3.90;3.60;;;7.00;68.30;;;;;;4968108;28;20654;-59
2024/03/06 08:00:49;;;;;;;3.80;3.50;;;7.10;68.40;;;;;;4973638;28;20579;-67
2024/03/06 08:03:16;;;;;;;3.60;3.30;;;7.00;67.20;;;;;;4971075;28;20286;-58
2024/03/06 08:05:43;;;;;;;3.67;3.37;;;6.80;69.40;;;;;;4974162;28;20270;-61
2024/03/06 08:08:09;;;;;;;4.70;4.30;;;6.90;69.00;;;;;;4973721;28;20274;-60
2024/03/06 08:10:36;;;;;;;4.03;3.73;;;7.00;68.60;;;;;;4966397;28;20227;-61
2024/03/06 08:13:03;;;;;;;4.23;3.80;;;7.10;68.70;;;;;;4973124;28;20263;-59
2024/03/06 08:15:29;;;;;;;3.80;3.50;;;7.10;67.80;;;;;;4969729;28;20597;-57
2024/03/06 08:17:56;;;;;;;4.03;3.73;;;7.20;67.90;;;;;;4965972;28;20294;-57
2024/03/06 08:20:23;;;;;;;4.07;3.73;;;7.10;67.30;;;;;;4972139;28;20247;-58
2024/03/06 08:22:49;;;;;;;3.97;3.67;;;7.10;67.80;;;;;;4973440;28;20227;-57
2024/03/06 08:25:16;;;;;;;3.60;3.30;;;7.10;68.50;;;;;;4960857;28;20262;-59
2024/03/06 08:27:43;;;;;;;3.67;3.37;;;7.10;68.40;;;;;;4969206;28;20543;-58
2024/03/06 08:30:09;;;;;;;4.20;3.87;;;7.20;68.10;;;;;;4956287;28;20349;-58
2024/03/06 08:32:37;;;;;;;4.93;4.30;;;7.30;67.90;;;;;;4950988;28;20239;-58
2024/03/06 08:35:05;;;;;;;4.30;3.97;;;7.20;67.40;;;;;;4961322;28;20582;-59
2024/03/06 08:37:32;;;;;;;4.93;4.53;;;7.30;67.60;;;;;;4964533;28;20222;-60
2024/03/06 08:39:58;;;;;;;4.67;4.27;;;7.10;67.70;;;;;;4965417;28;20208;-59
2024/03/06 08:42:25;;;;;;;4.10;3.80;;;7.10;69.20;;;;;;4972585;28;20238;-58
2024/03/06 08:44:51;;;;;;;4.30;3.90;;;7.20;68.90;;;;;;4962713;28;20737;-58
2024/03/06 08:47:18;;;;;;;4.30;3.90;;;7.30;69.30;;;;;;4954702;28;20430;-58
2024/03/06 08:49:44;;;;;;;4.00;3.70;;;7.30;69.30;;;;;;4966902;28;20231;-59
2024/03/06 08:52:11;;;;;;;4.03;3.63;;;7.30;68.20;;;;;;4969722;28;20247;-59
2024/03/06 08:54:37;;;;;;;4.43;3.83;;;7.30;68.00;;;;;;4966264;28;20223;-60
2024/03/06 08:57:04;;;;;;;4.30;3.90;;;7.30;69.00;;;;;;4970600;28;20211;-60
2024/03/06 08:59:30;;;;;;;4.63;4.23;;;7.40;68.60;;;;;;4967473;28;20212;-58
2024/03/06 09:01:57;;;;;;;5.20;4.43;;;7.40;67.80;;;;;;4964574;28;20235;-60
2024/03/06 09:04:24;;;;;;;10.97;8.03;;;7.40;67.70;;;;;;4967571;28;20293;-59
2024/03/06 09:06:51;;;;;;;4.93;4.53;;;7.30;68.70;;;;;;4971119;28;20219;-60
2024/03/06 09:09:17;;;;;;;4.27;3.87;;;7.40;68.20;;;;;;4960621;28;20230;-61
2024/03/06 09:11:50;;;;;;;6.10;4.20;;;7.30;67.70;;;;;;4964102;28;20283;-60
2024/03/06 09:14:17;;;;;;;3.80;3.50;;;7.20;68.60;;;;;;4964324;28;20217;-60
2024/03/06 09:16:43;;;;;;;3.90;3.60;;;7.20;68.40;;;;;;4974659;28;20769;-60
2024/03/06 09:19:10;;;;;;;4.13;3.73;;;7.20;68.70;;;;;;4962407;28;20220;-61
2024/03/06 09:21:36;;;;;;;4.10;3.37;;;7.20;68.00;;;;;;4964095;28;20384;-60
2024/03/06 09:24:03;;;;;;;3.90;3.50;;;7.00;68.40;;;;;;4971119;28;20219;-60
2024/03/06 09:26:30;;;;;;;4.23;3.83;;;7.10;68.60;;;;;;4952521;28;20207;-58
2024/03/06 09:28:56;;;;;;;4.70;4.30;;;7.10;68.50;;;;;;4970889;28;20215;-60
2024/03/06 09:31:23;;;;;;;4.53;4.13;;;7.20;68.50;;;;;;4967355;28;20254;-61
2024/03/06 09:33:49;;;;;;;4.20;3.80;;;7.20;68.30;;;;;;4950253;28;20292;-59
2024/03/06 09:36:16;;;;;;;4.80;4.30;;;7.20;69.00;;;;;;4973399;28;20216;-59
2024/03/06 09:38:43;;;;;;;4.93;3.53;;;7.30;68.80;;;;;;4972934;28;20578;-60
2024/03/06 09:41:09;;;;;;;4.87;4.47;;;7.20;68.10;;;;;;4963222;28;20208;-58
2024/03/06 09:43:36;;;;;;;5.47;4.10;;;7.30;69.60;;;;;;4970176;28;20226;-59
2024/03/06 09:46:04;;;;;;;5.10;4.20;;;7.30;69.10;;;;;;4948300;28;20209;-60
2024/03/06 09:48:30;;;;;;;4.53;4.20;;;7.20;68.60;;;;;;4957451;28;20226;-60
2024/03/06 09:50:57;;;;;;;4.90;4.50;;;7.30;68.50;;;;;;4967164;28;20259;-59
2024/03/06 09:53:23;;;;;;;4.60;4.20;;;7.30;68.90;;;;;;4984492;28;20359;-59
2024/03/06 09:55:50;;;;;;;5.50;4.77;;;7.40;68.90;;;;;;4973816;28;20219;-58
2024/03/06 09:58:16;;;;;;;5.13;4.63;;;7.30;68.40;;;;;;4987161;28;20242;-57
2024/03/06 10:00:44;;;;;;;5.33;4.93;;;7.30;69.50;;;;;;4985297;28;20203;-59
2024/03/06 10:03:11;;;;;;;4.83;4.43;;;7.40;69.00;;;;;;4989916;28;20317;-59
2024/03/06 10:05:37;;;;;;;4.90;4.50;;;7.50;67.90;;;;;;4985136;28;20662;-59
2024/03/06 10:08:05;;;;;;;5.10;4.70;;;7.20;68.10;;;;;;4981571;28;20242;-60
2024/03/06 10:10:31;;;;;;;5.50;5.00;;;7.30;68.50;;;;;;4985166;28;20318;-58
2024/03/06 10:12:59;;;;;;;5.13;4.77;;;7.20;68.60;;;;;;4994271;28;20242;-57
2024/03/06 10:15:27;;;;;;;5.47;4.97;;;7.40;68.70;;;;;;4987516;28;20283;-57
2024/03/06 10:17:54;;;;;;;5.50;5.00;;;7.40;68.20;;;;;;4983177;28;20313;-58
2024/03/06 10:20:20;;;;;;;5.40;4.90;;;7.40;67.70;;;;;;4984881;28;20264;-59
2024/03/06 10:22:47;;;;;;;8.73;5.13;;;7.30;68.50;;;;;;4967344;28;23626;-57
2024/03/06 10:25:14;;;;;;;5.07;4.60;;;7.50;69.40;;;;;;4983406;28;20200;-64
2024/03/06 10:27:40;;;;;;;6.20;4.90;;;7.30;69.00;;;;;;4986459;28;20632;-58
2024/03/06 10:30:10;;;;;;;7.73;4.93;;;7.40;68.60;;;;;;4992192;28;20278;-59
2024/03/06 10:32:37;;;;;;;4.97;4.53;;;7.60;68.70;;;;;;4991146;28;20490;-59
2024/03/06 10:35:06;;;;;;;4.40;4.03;;;7.60;68.40;;;;;;4987056;28;20239;-60
2024/03/06 10:37:34;;;;;;;6.50;5.30;;;7.40;67.80;;;;;;4984796;28;20269;-59
2024/03/06 10:40:00;;;;;;;7.00;6.07;;;7.20;70.20;;;;;;4990812;28;20229;-59
2024/03/06 10:42:27;;;;;;;6.97;6.03;;;7.30;68.40;;;;;;4991541;28;20319;-60
2024/03/06 10:44:54;;;;;;;8.17;6.40;;;7.40;67.50;;;;;;4991326;28;20570;-59
2024/03/06 10:47:20;;;;;;;7.10;6.33;;;7.50;67.40;;;;;;4990921;28;20210;-59
2024/03/06 10:49:47;;;;;;;7.23;6.53;;;7.60;65.90;;;;;;4990682;28;20224;-57
2024/03/06 10:52:16;;;;;;;5.87;5.27;;;7.60;65.90;;;;;;4993024;28;20274;-58
2024/03/06 10:54:43;;;;;;;5.60;5.10;;;7.60;66.90;;;;;;4993714;28;20234;-60
2024/03/06 10:57:09;;;;;;;5.57;5.07;;;7.60;67.10;;;;;;4996400;28;20214;-58
2024/03/06 10:59:36;;;;;;;5.40;4.90;;;7.50;68.60;;;;;;4992723;28;20204;-60
2024/03/06 11:02:03;;;;;;;5.70;5.20;;;7.60;67.30;;;;;;4990146;28;20231;-59
2024/03/06 11:04:33;;;;;;;5.43;4.93;;;7.60;65.90;;;;;;4989009;28;20225;-59
2024/03/06 11:07:00;;;;;;;7.30;5.73;;;7.50;68.40;;;;;;4986155;28;20250;-60
2024/03/06 11:09:27;;;;;;;6.07;5.40;;;7.60;66.60;;;;;;4990773;28;20218;-60
2024/03/06 11:11:53;;;;;;;6.50;5.90;;;7.60;66.40;;;;;;4995293;28;20271;-61
2024/03/06 11:14:20;;;;;;;8.50;5.57;;;7.60;67.30;;;;;;4994836;28;20222;-60
2024/03/06 11:16:46;;;;;;;7.53;6.07;;;7.70;67.00;;;;;;4991681;28;20212;-60
2024/03/06 11:19:13;;;;;;;8.33;5.90;;;7.80;66.40;;;;;;4976816;28;20579;-62
2024/03/06 11:21:39;;;;;;;6.00;5.40;;;7.70;67.30;;;;;;4983114;28;20239;-60
2024/03/06 11:24:06;;;;;;;6.10;5.23;;;7.60;66.00;;;;;;4990349;28;20206;-60
2024/03/06 11:26:33;;;;;;;5.50;5.00;;;7.40;68.10;;;;;;4988010;28;20254;-58
2024/03/06 11:28:59;;;;;;;6.67;5.73;;;7.50;66.80;;;;;;4979732;28;20280;-60
2024/03/06 11:31:26;;;;;;;5.83;5.20;;;7.40;67.30;;;;;;4978232;28;20231;-60
2024/03/06 11:33:52;;;;;;;6.73;5.47;;;7.40;66.90;;;;;;4967187;28;20685;-59
2024/03/06 11:36:18;;;;;;;7.10;6.10;;;7.50;67.60;;;;;;4968589;28;20230;-60
2024/03/06 11:38:44;;;;;;;6.47;5.83;;;7.60;66.60;;;;;;4962133;28;20379;-60
2024/03/06 11:41:11;;;;;;;7.50;6.67;;;7.70;66.00;;;;;;4979512;28;20686;-61
2024/03/06 11:43:38;;;;;;;7.90;7.10;;;7.80;65.40;;;;;;4962567;28;20292;-59
2024/03/06 11:46:04;;;;;;;7.77;6.97;;;7.80;65.10;;;;;;4987536;28;20216;-60
2024/03/06 11:48:31;;;;;;;8.23;7.43;;;7.70;66.00;;;;;;4982407;28;20203;-59
2024/03/06 11:50:58;;;;;;;10.17;8.03;;;7.70;66.00;;;;;;4970606;28;24384;-61
2024/03/06 11:53:25;;;;;;;9.43;8.03;;;7.50;66.30;;;;;;4977332;28;20250;-60
2024/03/06 11:55:52;;;;;;;9.50;8.47;;;7.50;67.50;;;;;;4978025;28;20212;-60
2024/03/06 11:58:18;;;;;;;9.53;8.20;;;7.70;66.40;;;;;;4985812;28;20212;-59
2024/03/06 12:00:46;;;;;;;8.97;8.07;;;7.80;64.20;;;;;;4972887;28;20211;-59
2024/03/06 12:03:13;;;;;;;9.30;8.30;;;7.80;64.80;;;;;;4971845;28;20248;-59
2024/03/06 12:05:39;;;;;;;9.30;8.30;;;7.80;64.90;;;;;;4984674;28;20290;-60
2024/03/06 12:08:06;;;;;;;10.43;9.03;;;7.50;65.80;;;;;;4986805;28;20262;-58
2024/03/06 12:10:32;;;;;;;10.43;8.37;;;7.60;65.90;;;;;;4989528;28;20223;-58
2024/03/06 12:12:59;;;;;;;9.40;7.97;;;7.50;65.20;;;;;;4987465;28;20713;-59
2024/03/06 12:15:25;;;;;;;9.73;7.60;;;7.60;65.90;;;;;;4990082;28;20230;-57
2024/03/06 12:17:52;;;;;;;9.20;7.43;;;7.70;65.70;;;;;;4989387;28;20212;-59
2024/03/06 12:20:18;;;;;;;8.60;7.70;;;7.60;65.50;;;;;;4980557;28;20215;-58
2024/03/06 12:22:45;;;;;;;10.87;8.23;;;7.80;66.10;;;;;;4993396;28;20631;-59
2024/03/06 12:25:11;;;;;;;8.80;7.90;;;7.60;65.80;;;;;;4993157;28;20215;-56
2024/03/06 12:27:38;;;;;;;8.60;7.40;;;7.70;65.60;;;;;;4991168;28;20215;-58
2024/03/06 12:30:04;;;;;;;9.40;8.40;;;7.70;65.40;;;;;;4994178;28;20223;-63
2024/03/06 12:32:31;;;;;;;9.93;7.90;;;7.50;66.90;;;;;;4993742;28;20235;-67
2024/03/06 12:34:59;;;;;;;7.77;6.97;;;7.30;68.50;;;;;;4994776;28;20732;-56
2024/03/06 12:37:26;;;;;;;8.27;7.40;;;7.60;68.20;;;;;;4995091;28;20212;-56
2024/03/06 12:39:52;;;;;;;7.70;6.90;;;7.70;67.50;;;;;;4967121;28;20212;-58
2024/03/06 12:42:19;;;;;;;7.93;7.10;;;7.70;66.00;;;;;;4991543;28;20634;-57
2024/03/06 12:44:45;;;;;;;9.70;7.53;;;7.70;66.80;;;;;;4986027;28;20219;-57
2024/03/06 12:47:12;;;;;;;8.73;7.53;;;7.70;65.50;;;;;;4983419;28;20219;-60